This is the latest recevied weather packets stored in our database for station/object CE4TQY-10. If no packets are shown the sender has not sent any weather packets the latest 10 day(s).
| Time | Temp. | Humidity | Pressure | Rain* | Wind** | Luminosity | Snow |
|---|---|---|---|---|---|---|---|
| 1777968363 | 12.78° C | 58% | 1016.6 hPa | - | - | - | - |
| 1777967462 | 13.33° C | 54% | 1016.7 hPa | - | - | - | - |
| 1777966561 | 13.33° C | 54% | 1016.7 hPa | - | - | - | - |
| 1777965660 | 13.89° C | 53% | 1016.7 hPa | - | - | - | - |
| 1777964759 | 14.44° C | 50% | 1016.5 hPa | - | - | - | - |
| 1777963858 | 14.44° C | 51% | 1016.8 hPa | - | - | - | - |
| 1777962957 | 14.44° C | 51% | 1017.2 hPa | - | - | - | - |
| 1777962056 | 14.44° C | 49% | 1017.2 hPa | - | - | - | - |
| 1777961155 | 15° C | 48% | 1017.4 hPa | - | - | - | - |
| 1777960255 | 14.44° C | 49% | 1017.7 hPa | - | - | - | - |
| 1777959354 | 13.89° C | 51% | 1017.7 hPa | - | - | - | - |
| 1777958453 | 13.33° C | 55% | 1017.7 hPa | - | - | - | - |
| 1777957552 | 13.89° C | 52% | 1017.8 hPa | - | - | - | - |
| 1777956650 | 14.44° C | 47% | 1017.9 hPa | - | - | - | - |
| 1777955750 | 15° C | 46% | 1017.9 hPa | - | - | - | - |
| 1777954849 | 15.56° C | 45% | 1018.1 hPa | - | - | - | - |
| 1777953948 | 15° C | 48% | 1018.1 hPa | - | - | - | - |
| 1777943138 | 15.56° C | 52% | 1017.8 hPa | - | - | - | - |
| 1777942237 | 15.56° C | 50% | 1017.8 hPa | - | - | - | - |
| 1777941336 | 15.56° C | 48% | 1017.8 hPa | - | - | - | - |
| 1777940434 | 15° C | 51% | 1017.8 hPa | - | - | - | - |
| 1777938632 | 15.56° C | 49% | 1017.6 hPa | - | - | - | - |
| 1777929623 | 18.33° C | 39% | 1017.4 hPa | - | - | - | - |
| 1777921514 | 17.22° C | 48% | 1018.3 hPa | - | - | - | - |
| 1777919712 | 17.22° C | 43% | 1018.6 hPa | - | - | - | - |
* Rain since midnight (hover to see other rain measurements)
** Current wind speed in m/s (hover to see current wind gust speed)